Rockton, PA (15856)

2:56 AM EST on February 09, 2016 (GMT -0500)
Eastern Avenue | | Change Station
CLOSE
Current Station
Personal Weather Station
Location: DuBois, PA
Elevation: 1457 ft
Nearby Weather Stations

Elev 1457 ft 41.12 °N, 78.74 °W | Updated 1 second ago

Overcast
Overcast
33.3 °F
Feels Like 33 °F
N
0.0
Wind Variable Wind from North
Gusts 0.0 mph

Today
High -- | Low -- °F
--% Chance of Precip.
Yesterday
High -- | Low -- °F
Precip. -- in
Pressure 29.53 in
Visibility 5.0 miles
Clouds Few 800 ft
Scattered Clouds 1900 ft
Overcast 2900 ft
Windchill 33 °F
Dew Point 30 °F
Humidity 87%
Rainfall 0.00 in
Snow Depth Not available.
7:17 AM 5:40 PM
New Moon, 1% visible
SPECI KFIG 090738Z AUTO 00000KT 5SM BR FEW008 SCT019 OVC029 M01/M02 A2953 RMK AO2 UPE0659 P0000 T10061022
Pressure 29.53 in
Visibility 5.0 miles
Clouds Few 800 ft
Scattered Clouds 1900 ft
Overcast 2900 ft
Windchill 33 °F
Dew Point 30 °F
Humidity 87%
Rainfall 0.00 in
Snow Depth Not available.
7:17 AM 5:40 PM
New Moon, 1% visible
SPECI KFIG 090738Z AUTO 00000KT 5SM BR FEW008 SCT019 OVC029 M01/M02 A2953 RMK AO2 UPE0659 P0000 T10061022

10-Day Weather Forecast

Almanac

Astronomy

Feb. 09, 2016 Rise Set
Actual Time
Civil Twilight
Nautical Twilight
Astronomical Twilight
Moon
Length of Visible Light
Length of Day
Tomorrow will be .
, % of the Moon is Illuminated

Today's Extremes

State Highs State Lows

Community

WunderPhotos

Upload Photos

1,891,571 photos uploaded!

WunderBlog® & News

Nearby

Air Quality

  Air Quality AQ Index Pollutant
Not available.

Snow Depth

Station Depth Elevation

Earthquake Activity

City Distance Mag. Time & Date
Minimum magnitude displayed is 2.5.

Coastal Water Temperatures

Place Temperature

Stations

Nearby Weather Stations

Station Location Temp. Windchill Dew Point Humidity Wind Precip. Elev Updated Type
                   

Watches & Warnings

There are currently no watches in effect.